createdAt,value
2018-04-24T00:00:29.372Z,2.53
2018-04-24T00:02:55.749Z,2.40
2018-04-24T00:05:23.187Z,2.30
2018-04-24T00:07:50.671Z,2.43
2018-04-24T00:10:18.612Z,2.43
2018-04-24T00:12:45.396Z,2.73
2018-04-24T00:15:12.029Z,2.00
2018-04-24T00:17:39.224Z,2.43
2018-04-24T00:20:05.627Z,2.53
2018-04-24T00:22:31.988Z,2.20
2018-04-24T00:24:58.249Z,3.00
2018-04-24T00:27:24.489Z,2.27
2018-04-24T00:29:50.697Z,2.50
2018-04-24T00:32:17.404Z,2.70
2018-04-24T00:34:44.424Z,2.70
2018-04-24T00:37:10.741Z,2.20
2018-04-24T00:39:37.026Z,2.20
2018-04-24T00:42:03.360Z,2.50
2018-04-24T00:44:29.575Z,2.30
2018-04-24T00:46:56.106Z,2.80
2018-04-24T00:49:24.470Z,2.77
2018-04-24T00:51:50.849Z,2.53
2018-04-24T00:54:17.088Z,2.07
2018-04-24T00:56:43.375Z,2.10
2018-04-24T00:59:09.634Z,2.47
2018-04-24T01:01:37.284Z,2.40
2018-04-24T01:04:03.744Z,2.10
2018-04-24T01:06:30.045Z,1.93
2018-04-24T01:08:56.415Z,2.20
2018-04-24T01:11:22.745Z,2.33
2018-04-24T01:13:49.005Z,2.50
2018-04-24T01:16:15.225Z,2.07
2018-04-24T01:18:41.457Z,2.03
2018-04-24T01:21:07.675Z,2.23
2018-04-24T01:23:33.920Z,1.93
2018-04-24T01:26:00.141Z,1.87
2018-04-24T01:28:26.360Z,2.07
2018-04-24T01:30:52.904Z,2.57
2018-04-24T01:36:10.137Z,1.90
2018-04-24T01:38:37.597Z,2.73
2018-04-24T01:41:03.853Z,2.90
2018-04-24T01:43:30.163Z,2.30
2018-04-24T01:45:56.338Z,2.50
2018-04-24T01:48:23.310Z,2.40
2018-04-24T01:50:49.498Z,2.53
2018-04-24T01:53:15.693Z,2.63
2018-04-24T01:55:42.642Z,3.10
2018-04-24T01:58:09.632Z,2.90
2018-04-24T02:00:35.903Z,2.90
2018-04-24T02:03:02.392Z,2.90
2018-04-24T02:05:29.216Z,2.60
2018-04-24T02:07:55.685Z,3.77
2018-04-24T02:10:22.287Z,2.83
2018-04-24T02:12:49.261Z,2.60
2018-04-24T02:15:15.632Z,2.73
2018-04-24T02:17:42.022Z,2.63
2018-04-24T02:20:08.298Z,2.70
2018-04-24T02:22:34.773Z,3.03
2018-04-24T02:25:01.224Z,2.70
2018-04-24T02:27:28.177Z,2.60
2018-04-24T02:29:55.236Z,2.70
2018-04-24T02:32:21.534Z,2.87
2018-04-24T02:34:48.551Z,2.87
2018-04-24T02:37:14.797Z,2.67
2018-04-24T02:39:41.246Z,2.90
2018-04-24T02:42:07.455Z,2.43
2018-04-24T02:44:33.691Z,2.80
2018-04-24T02:46:59.965Z,2.60
2018-04-24T02:49:26.210Z,2.53
2018-04-24T02:51:53.258Z,3.10
2018-04-24T02:54:19.530Z,2.60
2018-04-24T02:56:45.769Z,2.50
2018-04-24T02:59:11.991Z,2.80
2018-04-24T03:01:38.978Z,2.90
2018-04-24T03:04:05.217Z,3.00
2018-04-24T03:06:37.465Z,2.93
2018-04-24T03:09:05.563Z,3.23
2018-04-24T03:11:31.776Z,2.60
2018-04-24T03:13:58.030Z,2.60
2018-04-24T03:16:24.363Z,3.57
2018-04-24T03:18:50.615Z,3.30
2018-04-24T03:21:17.710Z,2.77
2018-04-24T03:23:43.957Z,3.00
2018-04-24T03:26:10.389Z,3.33
2018-04-24T03:28:36.631Z,3.00
2018-04-24T03:31:03.058Z,3.43
2018-04-24T03:33:29.327Z,2.80
2018-04-24T03:35:55.848Z,3.43
2018-04-24T03:38:22.112Z,3.10
2018-04-24T03:40:48.325Z,3.27
2018-04-24T03:43:14.730Z,2.90
2018-04-24T03:45:41.290Z,3.43
2018-04-24T03:48:07.666Z,3.40
2018-04-24T03:50:34.069Z,3.67
2018-04-24T03:53:00.554Z,3.87
2018-04-24T03:55:26.903Z,3.27
2018-04-24T03:57:53.869Z,3.70
2018-04-24T04:00:21.107Z,3.80
2018-04-24T04:02:47.661Z,4.20
2018-04-24T04:05:13.960Z,3.90
2018-04-24T04:07:40.515Z,4.50
2018-04-24T04:10:07.173Z,3.93
2018-04-24T04:12:34.446Z,4.50
2018-04-24T04:15:00.923Z,4.20
2018-04-24T04:17:39.590Z,3.90
2018-04-24T04:20:18.969Z,4.13
2018-04-24T04:22:57.631Z,3.90
2018-04-24T04:25:24.627Z,5.23
2018-04-24T04:27:51.050Z,5.13
2018-04-24T04:30:18.004Z,5.30
2018-04-24T04:32:45.045Z,5.97
2018-04-24T04:35:12.081Z,5.87
2018-04-24T04:37:38.390Z,6.37
2018-04-24T04:40:05.735Z,6.27
2018-04-24T04:42:32.078Z,6.73
2018-04-24T04:44:58.311Z,7.87
2018-04-24T04:47:24.823Z,7.60
2018-04-24T04:49:51.166Z,8.33
2018-04-24T04:52:17.454Z,7.73
2018-04-24T04:54:43.761Z,7.87
2018-04-24T04:57:10.074Z,7.13
2018-04-24T04:59:36.642Z,8.60
2018-04-24T05:02:02.954Z,8.73
2018-04-24T05:04:29.486Z,8.13
2018-04-24T05:06:55.772Z,8.50
2018-04-24T05:09:22.160Z,8.53
2018-04-24T05:11:51.666Z,7.87
2018-04-24T05:14:18.703Z,7.73
2018-04-24T05:16:44.991Z,7.93
2018-04-24T05:19:15.025Z,7.17
2018-04-24T05:21:42.656Z,7.47
2018-04-24T05:24:09.764Z,7.00
2018-04-24T05:26:36.888Z,5.50
2018-04-24T05:29:03.186Z,5.93
2018-04-24T05:31:29.468Z,6.17
2018-04-24T05:33:55.693Z,5.77
2018-04-24T05:36:21.998Z,6.00
2018-04-24T05:38:48.420Z,6.17
2018-04-24T05:41:14.929Z,5.40
2018-04-24T05:43:41.240Z,5.43
2018-04-24T05:46:07.527Z,5.63
2018-04-24T05:48:33.874Z,5.87
2018-04-24T05:51:00.101Z,5.90
2018-04-24T05:53:26.421Z,5.27
2018-04-24T05:55:53.374Z,5.33
2018-04-24T05:58:20.391Z,4.67
2018-04-24T06:00:46.721Z,4.97
2018-04-24T06:03:12.949Z,5.57
2018-04-24T06:05:39.144Z,5.23
2018-04-24T06:08:05.339Z,5.03
2018-04-24T06:10:31.550Z,4.40
2018-04-24T06:12:57.754Z,4.80
2018-04-24T06:15:24.029Z,4.13
2018-04-24T06:17:50.987Z,3.97
2018-04-24T06:20:17.945Z,4.37
2018-04-24T06:22:44.182Z,3.70
2018-04-24T06:25:11.133Z,3.60
2018-04-24T06:27:38.091Z,3.80
2018-04-24T06:30:05.075Z,4.30
2018-04-24T06:32:31.294Z,3.77
2018-04-24T06:34:57.559Z,3.77
2018-04-24T06:37:23.791Z,3.50
2018-04-24T06:39:50.049Z,4.00
2018-04-24T06:42:16.332Z,3.90
2018-04-24T06:44:42.530Z,4.53
2018-04-24T06:47:09.558Z,4.60
2018-04-24T06:49:35.854Z,4.83
2018-04-24T06:52:02.186Z,4.80
2018-04-24T06:54:28.393Z,5.07
2018-04-24T06:56:55.333Z,4.63
2018-04-24T06:59:21.593Z,4.93
2018-04-24T07:01:48.530Z,4.47
2018-04-24T07:04:15.472Z,5.10
2018-04-24T07:06:41.684Z,4.73
2018-04-24T07:09:07.874Z,4.30
2018-04-24T07:11:34.082Z,4.50
2018-04-24T07:14:01.030Z,4.00
2018-04-24T07:16:27.961Z,3.87
2018-04-24T07:18:54.144Z,4.10
2018-04-24T07:21:20.342Z,4.60
2018-04-24T07:23:46.525Z,4.10
2018-04-24T07:26:12.747Z,4.70
2018-04-24T07:28:39.038Z,4.47
2018-04-24T07:31:06.082Z,4.10
2018-04-24T07:33:32.558Z,3.50
2018-04-24T07:35:58.737Z,3.87
2018-04-24T07:38:25.015Z,4.00
2018-04-24T07:40:52.269Z,4.03
2018-04-24T07:43:19.222Z,3.33
2018-04-24T07:45:46.191Z,3.60
2018-04-24T07:48:12.465Z,3.60
2018-04-24T07:50:38.650Z,3.90
2018-04-24T07:53:04.906Z,3.90
2018-04-24T07:55:31.099Z,4.10
2018-04-24T07:57:58.034Z,4.03
2018-04-24T08:00:24.255Z,4.27
2018-04-24T08:02:50.458Z,4.53
2018-04-24T08:05:16.666Z,4.93
2018-04-24T08:07:42.845Z,4.93
2018-04-24T08:10:09.044Z,4.83
2018-04-24T08:12:35.229Z,5.33
2018-04-24T08:15:01.422Z,4.53
2018-04-24T08:17:27.633Z,4.97
2018-04-24T08:19:53.839Z,5.13
2018-04-24T08:22:20.785Z,5.20
2018-04-24T08:24:47.007Z,6.30
2018-04-24T08:27:13.249Z,5.23
2018-04-24T08:29:39.497Z,6.50
2018-04-24T08:32:06.447Z,6.03
2018-04-24T08:34:33.465Z,6.67
2018-04-24T08:36:59.689Z,6.37
2018-04-24T08:39:25.881Z,6.70
2018-04-24T08:41:53.081Z,6.70
2018-04-24T08:44:19.288Z,6.97
2018-04-24T08:46:45.588Z,8.00
2018-04-24T08:49:11.975Z,6.87
2018-04-24T08:51:38.250Z,7.03
2018-04-24T08:54:05.290Z,7.47
2018-04-24T08:56:31.566Z,7.50
2018-04-24T08:58:57.813Z,7.60
2018-04-24T09:01:24.031Z,7.10
2018-04-24T09:03:50.531Z,8.13
2018-04-24T09:06:16.969Z,7.80
2018-04-24T09:08:43.219Z,8.13
2018-04-24T09:11:09.417Z,8.17
2018-04-24T09:13:35.684Z,8.43
2018-04-24T09:16:01.881Z,8.73
2018-04-24T09:18:28.374Z,9.47
2018-04-24T09:20:54.798Z,9.80
2018-04-24T09:23:21.789Z,8.20
2018-04-24T09:25:48.012Z,10.10
2018-04-24T09:28:14.214Z,9.37
2018-04-24T09:30:40.460Z,8.67
2018-04-24T09:33:06.668Z,9.47
2018-04-24T09:35:32.852Z,10.53
2018-04-24T09:37:59.094Z,10.80
2018-04-24T09:40:26.111Z,10.97
2018-04-24T09:42:53.822Z,10.70
2018-04-24T09:45:20.067Z,11.80
2018-04-24T09:47:46.345Z,12.57
2018-04-24T09:50:13.349Z,12.33
2018-04-24T09:52:39.661Z,13.23
2018-04-24T09:55:05.895Z,13.30
2018-04-24T09:57:32.203Z,14.60
2018-04-24T09:59:58.464Z,14.43
2018-04-24T10:02:24.672Z,15.80
2018-04-24T10:04:51.626Z,16.37
2018-04-24T10:07:18.686Z,16.47
2018-04-24T10:09:44.925Z,17.50
2018-04-24T10:12:11.247Z,16.37
2018-04-24T10:14:37.618Z,17.47
2018-04-24T10:17:03.939Z,17.80
2018-04-24T10:19:30.527Z,17.20
2018-04-24T10:21:56.788Z,18.33
2018-04-24T10:24:23.871Z,17.87
2018-04-24T10:26:50.067Z,16.53
2018-04-24T10:29:16.332Z,18.83
2018-04-24T10:31:42.990Z,17.50
2018-04-24T10:34:09.330Z,18.57
2018-04-24T10:36:35.617Z,19.47
2018-04-24T10:39:01.934Z,18.80
2018-04-24T10:41:29.141Z,18.87
2018-04-24T10:43:55.381Z,18.43
2018-04-24T10:46:21.590Z,18.27
2018-04-24T10:48:48.521Z,19.33
2018-04-24T10:51:14.848Z,20.03
2018-04-24T10:53:41.097Z,19.67
2018-04-24T10:56:08.076Z,19.40
2018-04-24T10:58:34.329Z,17.03
2018-04-24T11:01:00.695Z,19.00
2018-04-24T11:03:27.005Z,16.53
2018-04-24T11:05:53.252Z,17.63
2018-04-24T11:08:19.503Z,18.73
2018-04-24T11:10:45.781Z,15.83
2018-04-24T11:13:12.066Z,13.80
2018-04-24T11:15:38.302Z,14.47
2018-04-24T11:18:04.510Z,13.27
2018-04-24T11:20:30.765Z,11.70
2018-04-24T11:22:56.971Z,11.20
2018-04-24T11:25:23.178Z,8.80
2018-04-24T11:27:50.190Z,10.53
2018-04-24T11:30:17.189Z,11.93
2018-04-24T11:32:44.520Z,11.47
2018-04-24T11:35:10.827Z,11.67
2018-04-24T11:37:37.043Z,12.83
2018-04-24T11:40:03.250Z,11.10
2018-04-24T11:42:29.435Z,11.73
2018-04-24T11:44:55.666Z,10.27
2018-04-24T11:47:21.884Z,9.43
2018-04-24T11:49:48.070Z,9.30
2018-04-24T11:52:15.015Z,8.87
2018-04-24T11:54:41.952Z,8.07
2018-04-24T11:57:08.195Z,8.57
2018-04-24T11:59:34.353Z,8.50
2018-04-24T12:02:00.551Z,7.60
2018-04-24T12:04:26.778Z,8.13
2018-04-24T12:06:52.994Z,8.50
2018-04-24T12:09:19.202Z,8.77
2018-04-24T12:11:45.393Z,8.90
2018-04-24T12:14:11.589Z,9.83
2018-04-24T12:16:37.789Z,9.20
2018-04-24T12:19:04.130Z,9.43
2018-04-24T12:21:30.359Z,10.90
2018-04-24T12:23:56.614Z,9.13
2018-04-24T12:26:22.812Z,9.83
2018-04-24T12:28:49.736Z,9.10
2018-04-24T12:31:15.989Z,9.30
2018-04-24T12:33:42.965Z,6.80
2018-04-24T12:36:09.246Z,7.47
2018-04-24T12:38:35.551Z,7.17
2018-04-24T12:41:01.786Z,6.33
2018-04-24T12:43:28.030Z,6.20
2018-04-24T12:45:54.406Z,7.90
2018-04-24T12:48:21.807Z,6.87
2018-04-24T12:50:48.130Z,5.63
2018-04-24T12:53:14.319Z,7.83
2018-04-24T12:55:40.505Z,6.67
2018-04-24T12:58:06.815Z,5.40
2018-04-24T13:00:33.766Z,6.80
2018-04-24T13:03:00.741Z,5.80
2018-04-24T13:05:34.592Z,3.73
2018-04-24T13:08:00.993Z,4.80
2018-04-24T13:10:27.217Z,5.37
2018-04-24T13:12:53.423Z,4.87
2018-04-24T13:15:20.407Z,5.17
2018-04-24T13:17:46.626Z,4.27
2018-04-24T13:20:12.807Z,5.27
2018-04-24T13:22:39.049Z,5.00
2018-04-24T13:25:05.303Z,5.63
2018-04-24T13:27:31.566Z,5.57
2018-04-24T13:29:57.846Z,4.80
2018-04-24T13:32:24.072Z,4.57
2018-04-24T13:34:50.421Z,5.40
2018-04-24T13:37:17.891Z,5.27
2018-04-24T13:39:44.185Z,4.87
2018-04-24T13:42:10.700Z,3.93
2018-04-24T13:44:37.458Z,5.83
2018-04-24T13:47:03.841Z,5.13
2018-04-24T13:49:30.076Z,4.83
2018-04-24T13:51:56.357Z,4.53
2018-04-24T13:54:22.574Z,4.17
2018-04-24T13:56:49.614Z,3.07
2018-04-24T13:59:16.581Z,2.60
2018-04-24T14:01:43.523Z,2.50
2018-04-24T14:04:10.555Z,3.10
2018-04-24T14:06:36.853Z,3.90
2018-04-24T14:09:05.201Z,3.70
2018-04-24T14:11:31.430Z,3.47
2018-04-24T14:13:58.382Z,3.13
2018-04-24T14:16:25.407Z,2.87
2018-04-24T14:18:52.360Z,3.73
2018-04-24T14:21:18.946Z,2.90
2018-04-24T14:23:45.223Z,2.97
2018-04-24T14:26:11.430Z,3.10
2018-04-24T14:28:37.670Z,3.10
2018-04-24T14:31:03.915Z,3.00
2018-04-24T14:33:30.157Z,2.73
2018-04-24T14:35:56.378Z,3.00
2018-04-24T14:38:22.572Z,3.27
2018-04-24T14:40:48.866Z,2.60
2018-04-24T14:43:15.402Z,3.03
2018-04-24T14:45:42.660Z,3.40
2018-04-24T14:48:08.884Z,3.03
2018-04-24T14:50:42.043Z,2.30
2018-04-24T14:53:08.311Z,3.00
2018-04-24T14:55:34.613Z,2.77
2018-04-24T14:58:01.139Z,3.00
2018-04-24T15:00:27.378Z,2.50
2018-04-24T15:02:53.595Z,2.83
2018-04-24T15:05:20.599Z,2.97
2018-04-24T15:07:47.023Z,3.30
2018-04-24T15:10:13.240Z,2.87
2018-04-24T15:12:39.512Z,2.30
2018-04-24T15:15:05.883Z,2.73
2018-04-24T15:17:32.224Z,3.13
2018-04-24T15:19:59.234Z,3.60
2018-04-24T15:22:25.481Z,3.80
2018-04-24T15:24:52.486Z,3.00
2018-04-24T15:27:18.791Z,3.50
2018-04-24T15:29:45.734Z,3.30
2018-04-24T15:32:12.018Z,3.43
2018-04-24T15:34:38.250Z,3.50
2018-04-24T15:37:04.473Z,3.10
2018-04-24T15:39:30.715Z,3.37
2018-04-24T15:41:56.934Z,2.70
2018-04-24T15:44:23.171Z,2.77
2018-04-24T15:46:49.471Z,2.60
2018-04-24T15:49:16.589Z,2.53
2018-04-24T15:51:42.868Z,2.47
2018-04-24T15:54:09.823Z,2.43
2018-04-24T15:56:36.769Z,2.37
2018-04-24T15:59:03.006Z,2.17
2018-04-24T16:01:30.675Z,2.40
2018-04-24T16:03:58.538Z,2.70
2018-04-24T16:06:25.207Z,2.07
2018-04-24T16:08:51.557Z,1.90
2018-04-24T16:11:18.179Z,1.77
2018-04-24T16:13:51.016Z,2.00
2018-04-24T16:16:22.251Z,2.43
2018-04-24T16:18:58.519Z,2.10
2018-04-24T16:21:25.315Z,2.50
2018-04-24T16:23:58.670Z,2.20
2018-04-24T16:26:25.734Z,2.57
2018-04-24T16:28:52.383Z,2.00
2018-04-24T16:31:18.638Z,2.33
2018-04-24T16:33:45.653Z,2.87
2018-04-24T16:36:11.885Z,2.13
2018-04-24T16:38:38.082Z,2.30
2018-04-24T16:41:04.298Z,2.33
2018-04-24T16:43:30.506Z,2.17
2018-04-24T16:45:57.968Z,2.80
2018-04-24T16:48:24.213Z,1.97
2018-04-24T16:50:51.178Z,2.50
2018-04-24T16:53:18.095Z,2.20
2018-04-24T16:55:45.017Z,2.33
2018-04-24T16:58:11.211Z,2.10
2018-04-24T17:00:38.214Z,2.70
2018-04-24T17:03:04.376Z,1.90
2018-04-24T17:05:31.586Z,2.80
2018-04-24T17:07:58.003Z,2.80
2018-04-24T17:10:26.285Z,3.30
2018-04-24T17:12:52.854Z,2.90
2018-04-24T17:15:19.111Z,2.13
2018-04-24T17:17:45.374Z,2.60
2018-04-24T17:20:11.586Z,3.10
2018-04-24T17:22:37.761Z,3.47
2018-04-24T17:25:03.964Z,2.67
2018-04-24T17:27:30.865Z,2.80
2018-04-24T17:29:57.053Z,2.30
2018-04-24T17:32:23.998Z,2.80
2018-04-24T17:34:50.934Z,2.63
2018-04-24T17:37:17.938Z,3.17
2018-04-24T17:39:44.137Z,3.20
2018-04-24T17:42:11.050Z,9.67
2018-04-24T17:44:37.234Z,3.97
2018-04-24T17:47:03.736Z,2.43
2018-04-24T17:49:29.979Z,3.60
2018-04-24T17:51:57.146Z,3.37
2018-04-24T17:54:24.124Z,2.40
2018-04-24T17:56:50.315Z,2.83
2018-04-24T17:59:17.262Z,2.67
2018-04-24T18:01:43.460Z,2.57
2018-04-24T18:04:09.643Z,2.37
2018-04-24T18:06:36.573Z,2.53
2018-04-24T18:09:05.281Z,2.47
2018-04-24T18:11:32.266Z,2.27
2018-04-24T18:13:58.429Z,2.77
2018-04-24T18:16:24.633Z,1.70
2018-04-24T18:18:50.809Z,1.93
2018-04-24T18:21:17.044Z,2.47
2018-04-24T18:23:44.429Z,2.67
2018-04-24T18:26:10.706Z,2.37
2018-04-24T18:28:36.939Z,2.10
2018-04-24T18:31:03.179Z,1.80
2018-04-24T18:33:29.386Z,2.00
2018-04-24T18:35:55.559Z,1.93
2018-04-24T18:38:21.747Z,1.80
2018-04-24T18:40:47.919Z,1.70
2018-04-24T18:43:14.117Z,1.73
2018-04-24T18:45:40.300Z,2.10
2018-04-24T18:48:07.427Z,2.07
2018-04-24T18:50:33.606Z,2.40
2018-04-24T18:53:00.524Z,2.10
2018-04-24T18:55:26.696Z,1.77
2018-04-24T18:57:53.618Z,1.50
2018-04-24T19:00:20.098Z,1.97
2018-04-24T19:02:46.269Z,1.93
2018-04-24T19:05:12.460Z,1.90
2018-04-24T19:07:38.653Z,1.60
2018-04-24T19:10:04.854Z,2.33
2018-04-24T19:12:31.054Z,1.97
2018-04-24T19:15:04.334Z,2.43
2018-04-24T19:17:31.253Z,2.10
2018-04-24T19:19:57.434Z,2.17
2018-04-24T19:22:23.612Z,2.10
2018-04-24T19:24:55.816Z,1.80
2018-04-24T19:27:22.738Z,2.73
2018-04-24T19:29:48.915Z,2.50
2018-04-24T19:32:21.167Z,2.10
2018-04-24T19:34:48.075Z,1.90
2018-04-24T19:37:14.273Z,2.27
2018-04-24T19:39:46.510Z,1.70
2018-04-24T19:42:12.697Z,1.93
2018-04-24T19:44:38.885Z,2.50
2018-04-24T19:47:05.814Z,2.30
2018-04-24T19:49:38.208Z,1.93
2018-04-24T19:52:05.149Z,2.23
2018-04-24T19:54:31.428Z,2.23
2018-04-24T19:56:57.592Z,2.23
2018-04-24T19:59:23.778Z,2.00
2018-04-24T20:01:50.712Z,2.17
2018-04-24T20:04:17.625Z,2.10
2018-04-24T20:06:43.802Z,2.10
2018-04-24T20:09:10.720Z,1.93
2018-04-24T20:11:36.896Z,1.73
2018-04-24T20:14:03.117Z,2.20
2018-04-24T20:16:30.016Z,2.53
2018-04-24T20:18:56.189Z,2.13
2018-04-24T20:21:23.122Z,2.50
2018-04-24T20:23:49.307Z,3.17
2018-04-24T20:26:15.545Z,2.77
2018-04-24T20:28:41.729Z,2.43
2018-04-24T20:31:07.927Z,2.30
2018-04-24T20:33:34.133Z,3.10
2018-04-24T20:36:00.308Z,2.30
2018-04-24T20:38:26.514Z,1.90
2018-04-24T20:40:52.681Z,2.17
2018-04-24T20:43:18.836Z,2.13
2018-04-24T20:45:45.765Z,2.13
2018-04-24T20:48:11.941Z,2.40
2018-04-24T20:50:38.160Z,2.30
2018-04-24T20:53:05.130Z,2.23
2018-04-24T20:55:31.325Z,2.30
2018-04-24T20:57:57.505Z,2.93
2018-04-24T21:00:23.694Z,1.90
2018-04-24T21:02:50.649Z,2.20
2018-04-24T21:05:17.565Z,1.57
2018-04-24T21:07:43.733Z,1.97
2018-04-24T21:10:10.664Z,2.13
2018-04-24T21:12:36.845Z,2.33
2018-04-24T21:15:03.063Z,1.10
2018-04-24T21:17:29.246Z,2.23
2018-04-24T21:19:55.413Z,1.60
2018-04-24T21:22:22.347Z,1.87
2018-04-24T21:24:48.538Z,2.40
2018-04-24T21:27:14.751Z,1.60
2018-04-24T21:29:40.946Z,1.80
2018-04-24T21:32:07.104Z,1.60
2018-04-24T21:34:34.041Z,1.97
2018-04-24T21:37:00.953Z,1.90
2018-04-24T21:39:27.163Z,2.10
2018-04-24T21:41:53.338Z,2.60
2018-04-24T21:44:20.998Z,1.80
2018-04-24T21:46:47.202Z,2.40
2018-04-24T21:49:13.444Z,2.20
2018-04-24T21:51:39.656Z,1.97
2018-04-24T21:54:05.840Z,2.30
2018-04-24T21:56:32.018Z,2.43
2018-04-24T21:58:58.209Z,1.83
2018-04-24T22:01:24.404Z,1.80
2018-04-24T22:03:50.650Z,2.23
2018-04-24T22:06:16.862Z,2.30
2018-04-24T22:08:43.055Z,2.33
2018-04-24T22:11:09.986Z,2.67
2018-04-24T22:13:36.910Z,2.17
2018-04-24T22:16:03.133Z,2.37
2018-04-24T22:18:30.048Z,1.97
2018-04-24T22:20:56.974Z,2.27
2018-04-24T22:23:23.161Z,2.00
2018-04-24T22:25:49.335Z,2.60
2018-04-24T22:28:15.530Z,1.90
2018-04-24T22:30:41.696Z,2.10
2018-04-24T22:33:07.894Z,1.90
2018-04-24T22:35:34.089Z,1.63
2018-04-24T22:38:01.013Z,2.20
2018-04-24T22:40:27.252Z,1.83
2018-04-24T22:42:53.433Z,2.57
2018-04-24T22:45:19.635Z,2.30
2018-04-24T22:47:46.578Z,2.00
2018-04-24T22:50:13.529Z,2.63
2018-04-24T22:52:40.492Z,2.40
2018-04-24T22:55:07.454Z,2.67
2018-04-24T22:57:33.645Z,3.17
2018-04-24T22:59:59.843Z,2.67
2018-04-24T23:02:26.030Z,2.40
2018-04-24T23:04:52.949Z,2.47
2018-04-24T23:07:19.164Z,2.67
2018-04-24T23:09:52.519Z,2.67
2018-04-24T23:12:31.866Z,3.13
2018-04-24T23:15:10.616Z,2.60
2018-04-24T23:17:49.106Z,2.60
2018-04-24T23:20:15.110Z,2.90
2018-04-24T23:22:42.060Z,3.00
2018-04-24T23:25:09.023Z,3.33
2018-04-24T23:27:35.225Z,3.50
2018-04-24T23:30:02.178Z,3.40
2018-04-24T23:32:28.386Z,3.10
2018-04-24T23:34:54.637Z,2.60
2018-04-24T23:37:20.826Z,3.23
2018-04-24T23:39:47.029Z,2.80
2018-04-24T23:42:13.997Z,3.17
2018-04-24T23:44:40.208Z,2.83
2018-04-24T23:47:07.153Z,3.53
2018-04-24T23:49:34.110Z,2.80
2018-04-24T23:52:01.037Z,3.07
2018-04-24T23:54:27.224Z,3.47
2018-04-24T23:56:53.433Z,3.20
2018-04-24T23:59:19.679Z,2.90
